Time;durP1;ratioP1;P1;durP2;ratioP2;P2;SDS_P1;SDS_P2;PMS_P1;PMS_P2;Temp;Humidity;BMP_temperature;BMP_pressure;BME280_temperature;BME280_humidity;BME280_pressure;Samples;Min_cycle;Max_cycle;Signal;HPM_P1;HPM_P2
2023/05/19 00:01:24;;;;;;;34.22;31.52;;;13.50;99.90;;;;;;5291803;28;20452;-77
2023/05/19 00:03:57;;;;;;;34.88;32.10;;;13.60;99.90;;;;;;5273295;28;20475;-77
2023/05/19 00:06:30;;;;;;;33.38;30.52;;;13.70;99.90;;;;;;5291501;28;20027;-77
2023/05/19 00:09:04;;;;;;;33.15;30.13;;;13.60;99.90;;;;;;5291412;28;20031;-77
2023/05/19 00:11:37;;;;;;;32.30;29.90;;;13.70;99.90;;;;;;5273042;28;20071;-77
2023/05/19 00:14:09;;;;;;;31.50;29.02;;;13.70;99.90;;;;;;5291305;28;20027;-77
2023/05/19 00:16:41;;;;;;;36.28;33.45;;;13.60;99.90;;;;;;5291383;28;20062;-77
2023/05/19 00:19:11;;;;;;;34.20;31.05;;;13.40;99.90;;;;;;5291089;28;20024;-77
2023/05/19 00:21:42;;;;;;;34.35;31.67;;;13.50;99.90;;;;;;5291072;28;20023;-77
2023/05/19 00:24:13;;;;;;;35.70;32.88;;;13.40;99.90;;;;;;5290796;28;20048;-77
2023/05/19 00:26:44;;;;;;;34.30;31.50;;;13.50;99.90;;;;;;5290963;28;20369;-77
2023/05/19 00:29:18;;;;;;;37.00;33.63;;;13.30;99.90;;;;;;5291101;28;20060;-77
2023/05/19 00:31:49;;;;;;;38.40;34.90;;;13.10;99.90;;;;;;5290988;28;20020;-76
2023/05/19 00:34:19;;;;;;;38.63;35.47;;;13.10;99.90;;;;;;5290823;28;20031;-76
2023/05/19 00:36:50;;;;;;;36.85;33.65;;;13.00;99.90;;;;;;5290892;28;20043;-77
2023/05/19 00:39:21;;;;;;;37.60;34.65;;;13.30;99.90;;;;;;5290920;28;20055;-77
2023/05/19 00:41:52;;;;;;;39.35;35.95;;;13.20;99.90;;;;;;5290639;28;20027;-77
2023/05/19 00:44:23;;;;;;;36.35;33.40;;;13.20;99.90;;;;;;5290655;28;20064;-77
2023/05/19 00:46:54;;;;;;;36.25;33.15;;;13.10;99.90;;;;;;5272530;28;20374;-77
2023/05/19 00:49:25;;;;;;;37.60;34.47;;;13.10;99.90;;;;;;5290792;28;20439;-77
2023/05/19 00:51:56;;;;;;;39.03;36.08;;;12.90;99.90;;;;;;5290572;28;20028;-77
2023/05/19 00:54:28;;;;;;;36.42;33.28;;;12.90;99.90;;;;;;5290169;28;20051;-78
2023/05/19 00:56:59;;;;;;;39.15;35.92;;;13.00;99.90;;;;;;5290391;28;20027;-77
2023/05/19 00:59:30;;;;;;;38.45;35.33;;;13.00;99.90;;;;;;5290267;28;20023;-77
2023/05/19 01:02:01;;;;;;;38.33;35.30;;;12.90;99.90;;;;;;5290496;28;20023;-77
2023/05/19 01:04:35;;;;;;;37.72;34.63;;;13.00;99.90;;;;;;5290278;28;20040;-77
2023/05/19 01:07:06;;;;;;;38.60;35.33;;;13.00;99.90;;;;;;5289339;28;20019;-74
2023/05/19 01:09:38;;;;;;;36.83;33.90;;;13.00;99.90;;;;;;5290050;28;20030;-76
2023/05/19 01:12:09;;;;;;;37.80;34.28;;;12.80;99.90;;;;;;5290403;28;20031;-77
2023/05/19 01:14:41;;;;;;;36.00;33.40;;;12.90;99.90;;;;;;5290442;28;20026;-76
2023/05/19 01:17:20;;;;;;;36.58;33.70;;;13.10;99.90;;;;;;5290551;28;20032;-77
2023/05/19 01:20:13;;;;;;;38.90;35.50;;;12.90;99.90;;;;;;5290442;28;20049;-77
2023/05/19 01:23:09;;;;;;;35.40;32.78;;;13.00;99.90;;;;;;5290078;28;20096;-77
2023/05/19 01:26:27;;;;;;;37.28;34.33;;;13.10;99.90;;;;;;5271894;28;20032;-76
2023/05/19 01:29:25;;;;;;;36.33;33.38;;;13.00;99.90;;;;;;5183981;28;20030;-77
2023/05/19 01:31:59;;;;;;;35.25;32.47;;;12.80;99.90;;;;;;5290129;28;20028;-77
2023/05/19 01:34:30;;;;;;;33.50;30.50;;;13.00;99.90;;;;;;5289954;28;20471;-77
2023/05/19 01:37:02;;;;;;;32.72;29.90;;;13.00;99.90;;;;;;5289670;28;20023;-77
2023/05/19 01:39:35;;;;;;;34.28;31.55;;;13.10;99.90;;;;;;5289412;28;20028;-76
2023/05/19 01:42:06;;;;;;;33.38;30.58;;;13.00;99.90;;;;;;5289695;28;20057;-77
2023/05/19 01:44:37;;;;;;;35.15;32.13;;;13.10;99.90;;;;;;5289202;28;20063;-76
2023/05/19 01:47:09;;;;;;;34.75;31.52;;;13.00;99.90;;;;;;5289488;28;20024;-76
2023/05/19 01:49:40;;;;;;;32.40;29.67;;;13.00;99.90;;;;;;5289445;28;20111;-77
2023/05/19 01:52:11;;;;;;;33.50;30.70;;;13.00;99.90;;;;;;5289298;28;20118;-77
2023/05/19 01:54:42;;;;;;;32.88;30.27;;;13.30;99.90;;;;;;5288900;28;20371;-76
2023/05/19 01:57:23;;;;;;;32.75;29.95;;;13.30;99.90;;;;;;5289410;27;20552;-77
2023/05/19 02:00:08;;;;;;;34.00;31.15;;;13.00;99.90;;;;;;5289185;28;20459;-76
2023/05/19 02:03:03;;;;;;;33.83;30.58;;;13.10;99.90;;;;;;5289157;28;20028;-77
2023/05/19 02:05:52;;;;;;;31.15;28.65;;;13.20;99.90;;;;;;5289266;28;20072;-77
2023/05/19 02:08:37;;;;;;;32.70;29.70;;;13.00;99.90;;;;;;5289002;28;20027;-78
2023/05/19 02:11:40;;;;;;;32.00;29.42;;;12.90;99.90;;;;;;5288943;28;20027;-77
2023/05/19 02:14:20;;;;;;;32.38;29.85;;;13.20;99.90;;;;;;5283771;28;20044;-77
2023/05/19 02:16:52;;;;;;;31.58;28.98;;;13.10;99.90;;;;;;5289014;28;20035;-77
2023/05/19 02:19:32;;;;;;;33.78;31.05;;;13.40;99.90;;;;;;5288582;28;20112;-77
2023/05/19 03:36:44;;;;;;;33.83;30.73;;;13.00;99.90;;;;;;5328367;27;20411;-76
2023/05/19 03:39:16;;;;;;;35.13;32.00;;;13.60;99.90;;;;;;5307215;27;20107;-79
2023/05/19 03:41:46;;;;;;;33.97;30.58;;;13.60;99.90;;;;;;5307202;27;20027;-78
2023/05/19 03:44:17;;;;;;;43.20;38.08;;;13.70;99.90;;;;;;5307051;28;20023;-76
2023/05/19 03:46:48;;;;;;;41.40;37.05;;;14.20;99.90;;;;;;5306766;28;20474;-77
2023/05/19 03:49:19;;;;;;;44.03;39.45;;;14.40;99.90;;;;;;5306753;27;20103;-77
2023/05/19 03:51:50;;;;;;;46.97;42.05;;;14.50;99.90;;;;;;5306786;27;20022;-76
2023/05/19 03:54:21;;;;;;;44.38;40.33;;;14.50;99.90;;;;;;5306837;27;20046;-77
2023/05/19 03:56:52;;;;;;;41.80;37.47;;;14.50;99.90;;;;;;5306603;27;20027;-76
2023/05/19 03:59:23;;;;;;;40.42;36.50;;;14.50;99.90;;;;;;5306748;28;20016;-76
2023/05/19 04:01:55;;;;;;;41.88;36.60;;;14.60;99.90;;;;;;5305216;28;20031;-76
2023/05/19 04:04:27;;;;;;;40.38;35.25;;;14.70;99.90;;;;;;5306099;27;20019;-76
2023/05/19 04:06:58;;;;;;;39.80;35.53;;;14.60;99.90;;;;;;5306132;27;20379;-76
2023/05/19 04:09:30;;;;;;;39.08;34.70;;;14.60;99.90;;;;;;5306367;28;20030;-75
2023/05/19 04:12:01;;;;;;;39.05;34.97;;;14.70;99.90;;;;;;5306504;28;20066;-77
2023/05/19 04:14:32;;;;;;;37.45;33.63;;;14.80;99.90;;;;;;5306227;27;20027;-76
2023/05/19 04:17:03;;;;;;;37.72;33.85;;;14.70;99.90;;;;;;5306214;27;20108;-76
2023/05/19 04:19:34;;;;;;;38.63;33.90;;;14.80;99.90;;;;;;5306242;27;20025;-76
2023/05/19 04:22:05;;;;;;;37.42;33.63;;;14.80;99.90;;;;;;5305910;27;20035;-78
2023/05/19 04:24:36;;;;;;;41.08;34.00;;;14.70;99.90;;;;;;5305935;28;20103;-77
2023/05/19 04:27:10;;;;;;;36.35;32.47;;;14.80;99.90;;;;;;5304658;28;20490;-77
2023/05/19 04:29:41;;;;;;;35.00;31.38;;;14.80;99.90;;;;;;5306386;27;20478;-76
2023/05/19 04:32:16;;;;;;;34.72;31.02;;;14.90;99.90;;;;;;5306284;27;20035;-76
2023/05/19 04:34:47;;;;;;;35.83;32.13;;;14.80;99.90;;;;;;5305803;27;20051;-77
2023/05/19 04:37:18;;;;;;;35.53;31.80;;;14.80;99.90;;;;;;5293181;27;20035;-76
2023/05/19 04:39:51;;;;;;;37.65;31.85;;;14.80;99.90;;;;;;5291553;27;20028;-77
2023/05/19 04:42:24;;;;;;;35.55;31.70;;;14.90;99.90;;;;;;5291647;28;20007;-77
2023/05/19 04:44:55;;;;;;;35.05;30.95;;;14.90;99.90;;;;;;5291381;28;20044;-76
2023/05/19 04:47:26;;;;;;;38.10;31.70;;;14.90;99.90;;;;;;5291139;28;20069;-76
2023/05/19 04:49:59;;;;;;;35.88;31.85;;;14.90;99.90;;;;;;5291284;28;20039;-77
2023/05/19 04:52:30;;;;;;;34.40;30.63;;;15.00;99.90;;;;;;5291276;28;20098;-76
2023/05/19 04:55:01;;;;;;;34.78;30.83;;;14.90;99.90;;;;;;5291199;28;20119;-77
2023/05/19 04:57:32;;;;;;;40.40;31.92;;;14.90;99.90;;;;;;5291296;28;20020;-77
2023/05/19 05:00:07;;;;;;;37.35;30.95;;;14.90;99.90;;;;;;5291202;28;20390;-73
2023/05/19 05:02:38;;;;;;;36.47;31.55;;;14.90;99.90;;;;;;5291224;28;20084;-78
2023/05/19 05:05:09;;;;;;;35.38;31.63;;;14.90;99.90;;;;;;5290920;28;20043;-78
2023/05/19 05:07:39;;;;;;;36.25;32.25;;;14.90;99.90;;;;;;5291156;28;20024;-79
2023/05/19 05:10:10;;;;;;;36.67;33.00;;;14.90;99.90;;;;;;5291007;28;20031;-78
2023/05/19 05:12:41;;;;;;;36.20;32.72;;;14.80;99.90;;;;;;5291007;28;20653;-77
2023/05/19 05:15:13;;;;;;;31.90;28.85;;;14.80;99.90;;;;;;5291131;27;20031;-78
2023/05/19 05:17:44;;;;;;;32.92;29.63;;;14.80;99.90;;;;;;5291165;28;20426;-74
2023/05/19 05:20:15;;;;;;;32.28;29.17;;;14.90;99.90;;;;;;5290886;28;20043;-78
2023/05/19 05:22:46;;;;;;;32.13;29.15;;;14.90;99.90;;;;;;5290672;28;20119;-78
2023/05/19 05:25:17;;;;;;;30.52;27.40;;;14.90;99.90;;;;;;5290796;28;20088;-76
2023/05/19 05:27:48;;;;;;;30.88;27.48;;;15.00;99.90;;;;;;5290730;27;20032;-78
2023/05/19 05:30:19;;;;;;;29.52;26.33;;;15.00;99.90;;;;;;5290694;28;20128;-78
2023/05/19 05:32:50;;;;;;;32.45;29.38;;;14.90;99.90;;;;;;5290660;28;20042;-78
2023/05/19 05:35:23;;;;;;;32.15;28.92;;;15.00;99.90;;;;;;5290325;28;20562;-78
2023/05/19 05:37:55;;;;;;;32.38;29.13;;;15.10;99.90;;;;;;5290530;28;20108;-78
2023/05/19 05:40:26;;;;;;;31.67;28.40;;;15.10;99.90;;;;;;5290550;28;20051;-79
2023/05/19 05:43:00;;;;;;;31.25;28.17;;;15.10;99.90;;;;;;5290467;28;20110;-78
2023/05/19 05:45:31;;;;;;;29.77;27.10;;;15.00;99.90;;;;;;5290402;28;20505;-78
2023/05/19 05:48:02;;;;;;;28.63;26.02;;;15.10;99.90;;;;;;5289259;28;20020;-79
2023/05/19 05:50:33;;;;;;;27.83;25.15;;;15.00;99.90;;;;;;5290170;28;20031;-77
2023/05/19 05:53:06;;;;;;;32.28;29.30;;;14.90;99.90;;;;;;5290142;28;20016;-78
2023/05/19 05:55:37;;;;;;;31.02;28.10;;;15.10;99.90;;;;;;5290071;28;20039;-78
2023/05/19 05:58:09;;;;;;;30.08;27.15;;;15.00;99.90;;;;;;5290590;28;20024;-78
2023/05/19 06:00:47;;;;;;;28.13;25.25;;;15.10;99.90;;;;;;5290344;28;20032;-77
2023/05/19 06:03:23;;;;;;;29.23;26.73;;;15.00;99.90;;;;;;5290149;28;20026;-78
2023/05/19 06:05:54;;;;;;;29.45;26.85;;;15.10;99.90;;;;;;5289775;28;20092;-74
2023/05/19 06:08:24;;;;;;;28.20;25.92;;;15.20;99.90;;;;;;5289671;28;20039;-78
2023/05/19 06:10:57;;;;;;;27.45;24.55;;;15.10;99.90;;;;;;5289764;28;20050;-78
2023/05/19 06:13:27;;;;;;;30.70;27.88;;;15.10;99.90;;;;;;5289676;27;20036;-78
2023/05/19 06:15:58;;;;;;;32.05;29.42;;;15.00;99.90;;;;;;5289680;28;20029;-77
2023/05/19 06:18:29;;;;;;;34.55;31.92;;;15.00;99.90;;;;;;5289546;28;20114;-78
2023/05/19 06:21:00;;;;;;;33.88;31.15;;;15.00;99.90;;;;;;5289641;27;20027;-78
2023/05/19 06:23:31;;;;;;;35.22;32.20;;;15.00;99.90;;;;;;5283018;28;20417;-78
2023/05/19 06:26:02;;;;;;;34.35;31.58;;;14.90;99.90;;;;;;5287122;28;20054;-77
2023/05/19 06:28:33;;;;;;;34.47;31.77;;;14.90;99.90;;;;;;5289402;28;20534;-78
2023/05/19 06:31:04;;;;;;;31.13;28.73;;;14.90;99.90;;;;;;5289351;28;20034;-77
2023/05/19 06:33:35;;;;;;;30.13;27.67;;;15.00;99.90;;;;;;5289284;28;20024;-78
2023/05/19 06:36:08;;;;;;;28.35;25.88;;;15.10;99.90;;;;;;5285338;28;20413;-69
2023/05/19 06:38:39;;;;;;;26.83;24.50;;;15.10;99.90;;;;;;5289873;27;20042;-69
2023/05/19 06:41:10;;;;;;;26.38;24.33;;;15.10;99.90;;;;;;5281945;28;20016;-68
2023/05/19 06:43:42;;;;;;;26.90;24.58;;;15.10;99.90;;;;;;5268423;28;20028;-69
2023/05/19 06:46:12;;;;;;;24.83;22.40;;;15.10;99.90;;;;;;5268294;28;20143;-69
2023/05/19 06:48:43;;;;;;;27.13;24.73;;;15.00;99.90;;;;;;5268367;28;20106;-69
2023/05/19 06:51:20;;;;;;;27.02;25.00;;;15.00;99.90;;;;;;5268268;28;20523;-69
2023/05/19 06:53:52;;;;;;;27.13;25.00;;;15.10;99.90;;;;;;5268387;28;20085;-69
2023/05/19 06:56:23;;;;;;;27.23;25.02;;;15.20;99.90;;;;;;5268211;28;20437;-69
2023/05/19 06:58:53;;;;;;;27.23;24.85;;;15.40;99.90;;;;;;5268006;28;20028;-69
2023/05/19 07:01:26;;;;;;;26.38;24.23;;;15.40;99.90;;;;;;5268346;28;20115;-69
2023/05/19 07:03:57;;;;;;;28.35;25.73;;;15.30;99.90;;;;;;5268045;28;20040;-69
2023/05/19 07:06:28;;;;;;;34.10;30.80;;;15.20;99.90;;;;;;5268113;28;20028;-70
2023/05/19 07:08:59;;;;;;;42.33;38.20;;;15.30;99.90;;;;;;5268148;28;20020;-69
2023/05/19 07:11:30;;;;;;;29.40;26.98;;;15.40;99.90;;;;;;5268130;28;20427;-70
2023/05/19 07:14:00;;;;;;;27.73;24.83;;;15.50;99.90;;;;;;5268134;28;20116;-70
2023/05/19 07:16:31;;;;;;;31.30;28.60;;;15.70;99.90;;;;;;5268087;28;20024;-69
2023/05/19 07:19:02;;;;;;;30.10;27.15;;;15.70;99.90;;;;;;5268055;28;20032;-70
2023/05/19 07:21:33;;;;;;;28.50;25.90;;;16.00;99.90;;;;;;5268038;28;20034;-67
2023/05/19 07:24:04;;;;;;;67.18;29.73;;;16.00;99.90;;;;;;5267905;28;20020;-68
2023/05/19 07:26:35;;;;;;;42.20;29.45;;;16.00;99.90;;;;;;5267968;28;20089;-67
2023/05/19 07:29:06;;;;;;;36.70;26.98;;;16.10;99.90;;;;;;5267963;28;20066;-67
2023/05/19 07:31:36;;;;;;;31.10;28.65;;;16.20;99.90;;;;;;5267884;28;20093;-69
2023/05/19 07:34:07;;;;;;;29.52;26.98;;;16.20;99.90;;;;;;5267703;28;20051;-68
2023/05/19 07:36:38;;;;;;;27.00;24.77;;;16.10;99.90;;;;;;5268142;28;20047;-68
2023/05/19 07:39:09;;;;;;;28.77;26.40;;;16.30;99.90;;;;;;5267835;28;20089;-68
2023/05/19 07:41:40;;;;;;;27.15;24.85;;;16.50;99.90;;;;;;5267998;28;20020;-67
2023/05/19 07:44:11;;;;;;;28.85;26.48;;;16.40;99.90;;;;;;5267847;28;20038;-69
2023/05/19 07:46:42;;;;;;;28.33;25.92;;;16.50;99.90;;;;;;5268016;28;20040;-70
2023/05/19 07:49:13;;;;;;;27.83;25.48;;;16.60;99.90;;;;;;5268122;28;20011;-67
2023/05/19 07:51:43;;;;;;;29.38;26.60;;;16.70;99.90;;;;;;5266769;28;20123;-67
2023/05/19 07:54:14;;;;;;;30.88;28.38;;;16.90;99.90;;;;;;5266694;28;20554;-68
2023/05/19 07:56:46;;;;;;;29.35;27.10;;;16.80;99.90;;;;;;5267760;28;20028;-68
2023/05/19 07:59:18;;;;;;;32.30;29.77;;;16.70;99.90;;;;;;5267795;28;20439;-69
2023/05/19 08:01:49;;;;;;;31.98;29.52;;;16.70;99.90;;;;;;5267727;28;20027;-68
2023/05/19 08:04:20;;;;;;;32.58;29.80;;;16.80;99.90;;;;;;5267430;28;20028;-67
2023/05/19 08:06:51;;;;;;;35.30;32.40;;;17.10;99.90;;;;;;5267503;28;20479;-69
2023/05/19 08:09:22;;;;;;;33.60;30.70;;;16.80;99.90;;;;;;5267629;28;20025;-68
2023/05/19 08:11:53;;;;;;;32.85;30.10;;;16.80;99.90;;;;;;5269679;28;20028;-68
2023/05/19 08:14:25;;;;;;;36.85;33.88;;;16.90;99.90;;;;;;5270293;28;20164;-68
2023/05/19 08:16:55;;;;;;;34.97;32.33;;;16.80;99.90;;;;;;5271520;28;20028;-68
2023/05/19 08:19:26;;;;;;;37.10;33.90;;;16.90;99.90;;;;;;5271594;28;20787;-66
2023/05/19 08:21:59;;;;;;;37.65;34.67;;;16.90;99.90;;;;;;5271430;28;20111;-70
2023/05/19 08:24:32;;;;;;;38.00;35.08;;;16.70;99.90;;;;;;5271160;28;20032;-67
2023/05/19 08:27:03;;;;;;;38.50;35.22;;;16.70;99.90;;;;;;5271179;28;20111;-68
2023/05/19 08:29:35;;;;;;;38.22;35.10;;;16.90;99.90;;;;;;5271179;28;20020;-68
2023/05/19 08:32:06;;;;;;;39.90;37.00;;;17.10;99.90;;;;;;5277085;28;20028;-69
2023/05/19 08:34:37;;;;;;;36.03;33.08;;;17.10;99.90;;;;;;5270721;28;20040;-69
2023/05/19 08:37:08;;;;;;;38.42;35.15;;;17.20;99.90;;;;;;5269104;28;20040;-69
2023/05/19 08:39:39;;;;;;;36.40;33.30;;;17.10;99.90;;;;;;5272050;28;20104;-69
2023/05/19 08:42:11;;;;;;;38.08;35.35;;;17.00;99.90;;;;;;5289447;28;20759;-69
2023/05/19 08:44:42;;;;;;;38.20;35.05;;;17.00;99.90;;;;;;5275692;27;20036;-70
2023/05/19 08:47:14;;;;;;;39.05;35.92;;;16.80;99.90;;;;;;5279266;28;20031;-69
2023/05/19 08:49:52;;;;;;;39.13;36.10;;;16.90;99.90;;;;;;5282118;28;20059;-70
2023/05/19 08:52:54;;;;;;;40.20;37.08;;;16.90;99.90;;;;;;5275780;28;20118;-71
2023/05/19 08:55:57;;;;;;;37.90;34.95;;;17.00;99.90;;;;;;5270392;28;20426;-71
2023/05/19 08:58:31;;;;;;;36.78;33.97;;;17.10;99.90;;;;;;5270002;28;20071;-70
2023/05/19 09:01:06;;;;;;;40.47;37.22;;;17.10;99.90;;;;;;5270571;28;20035;-71
2023/05/19 09:03:37;;;;;;;37.28;34.20;;;17.10;99.90;;;;;;5270580;28;20039;-71
2023/05/19 09:06:11;;;;;;;37.38;34.28;;;17.50;99.90;;;;;;5270492;28;20047;-71
2023/05/19 09:08:43;;;;;;;38.22;34.97;;;17.90;99.90;;;;;;5270649;28;20032;-71
2023/05/19 09:11:15;;;;;;;38.70;35.50;;;17.90;99.90;;;;;;5270481;28;20048;-70
2023/05/19 09:13:46;;;;;;;40.63;37.25;;;18.00;99.90;;;;;;5270406;28;20024;-70
2023/05/19 09:16:17;;;;;;;45.42;41.65;;;18.00;99.90;;;;;;5270319;28;20486;-68
2023/05/19 09:18:55;;;;;;;46.92;43.13;;;18.10;99.90;;;;;;5270249;28;20028;-70
2023/05/19 09:21:30;;;;;;;43.17;39.58;;;17.90;99.90;;;;;;5270099;28;20028;-67
2023/05/19 09:24:05;;;;;;;40.38;37.22;;;17.90;99.90;;;;;;5270044;28;20021;-69
2023/05/19 09:26:41;;;;;;;42.10;38.50;;;18.10;99.90;;;;;;5269987;28;20383;-69
2023/05/19 09:29:16;;;;;;;40.45;37.08;;;18.40;99.90;;;;;;5269973;28;20025;-68
2023/05/19 09:31:51;;;;;;;35.90;33.13;;;18.40;99.90;;;;;;5269951;28;20501;-69
2023/05/19 09:34:23;;;;;;;40.38;36.90;;;18.80;99.90;;;;;;5269715;28;20090;-68
2023/05/19 09:36:54;;;;;;;34.72;31.92;;;18.80;99.90;;;;;;5269892;28;20035;-66
2023/05/19 09:39:27;;;;;;;33.00;30.35;;;19.20;99.90;;;;;;5269750;28;20028;-70
2023/05/19 09:41:58;;;;;;;32.95;29.92;;;19.30;99.90;;;;;;5269717;28;20107;-69
2023/05/19 09:44:30;;;;;;;32.20;29.13;;;19.40;99.90;;;;;;5269820;28;20119;-70
2023/05/19 09:47:01;;;;;;;30.83;28.35;;;19.70;99.90;;;;;;5269697;28;20352;-69
2023/05/19 09:49:32;;;;;;;32.80;30.20;;;19.60;99.90;;;;;;5286946;28;20745;-70
2023/05/19 09:52:03;;;;;;;33.00;30.38;;;19.60;99.90;;;;;;5290728;28;20024;-70
2023/05/19 09:54:34;;;;;;;32.90;30.17;;;19.90;99.90;;;;;;5286413;28;20032;-70
2023/05/19 09:57:06;;;;;;;31.88;29.10;;;19.80;99.90;;;;;;5269532;28;20020;-66
2023/05/19 09:59:37;;;;;;;37.15;33.92;;;20.00;99.90;;;;;;5271927;28;20079;-69
2023/05/19 10:02:15;;;;;;;33.35;30.85;;;20.10;99.90;;;;;;5269307;28;20028;-69
2023/05/19 10:04:47;;;;;;;37.08;34.25;;;20.00;99.90;;;;;;5269399;28;20040;-68
2023/05/19 10:07:20;;;;;;;39.00;35.90;;;20.00;99.90;;;;;;5269238;28;20032;-69
2023/05/19 10:09:52;;;;;;;38.35;35.42;;;20.00;99.90;;;;;;5269160;28;20475;-66
2023/05/19 10:12:24;;;;;;;39.25;36.45;;;19.90;99.90;;;;;;5281184;28;20109;-70
2023/05/19 10:14:57;;;;;;;37.42;34.17;;;19.80;99.90;;;;;;5290164;28;20015;-69
2023/05/19 10:17:28;;;;;;;38.60;35.80;;;19.60;99.90;;;;;;5289848;28;20065;-70
2023/05/19 10:20:00;;;;;;;38.05;35.10;;;19.50;99.90;;;;;;5290474;28;20641;-70
2023/05/19 10:22:30;;;;;;;37.60;34.88;;;19.50;99.90;;;;;;5290146;28;20019;-70
2023/05/19 10:25:01;;;;;;;34.92;32.08;;;19.40;99.90;;;;;;5289794;28;20151;-70
2023/05/19 10:27:35;;;;;;;32.97;30.58;;;19.20;99.90;;;;;;5289885;28;20031;-70
2023/05/19 10:30:14;;;;;;;35.28;32.65;;;19.10;99.90;;;;;;5289970;28;20110;-70
2023/05/19 10:32:50;;;;;;;30.65;28.05;;;18.90;99.90;;;;;;5289837;28;20059;-70
2023/05/19 10:35:35;;;;;;;30.52;28.05;;;18.80;99.90;;;;;;5287784;28;20554;-66
2023/05/19 10:38:24;;;;;;;34.00;31.40;;;18.70;99.90;;;;;;5289938;28;20085;-67
2023/05/19 10:41:25;;;;;;;36.20;33.55;;;18.70;99.90;;;;;;5289836;28;20047;-70
2023/05/19 10:44:25;;;;;;;41.53;38.13;;;18.50;99.90;;;;;;5289623;28;20080;-70
2023/05/19 10:46:56;;;;;;;41.05;38.05;;;18.50;99.90;;;;;;5289687;28;20448;-69
2023/05/19 10:49:27;;;;;;;40.33;37.28;;;18.60;99.90;;;;;;5289560;28;20359;-68
2023/05/19 10:51:58;;;;;;;40.65;37.30;;;18.60;99.90;;;;;;5289590;28;20085;-69
2023/05/19 10:54:45;;;;;;;43.42;39.90;;;18.70;99.90;;;;;;5285850;28;20023;-70
2023/05/19 10:57:16;;;;;;;39.08;36.03;;;18.80;99.90;;;;;;5274150;28;20020;-66
2023/05/19 10:59:48;;;;;;;40.35;37.05;;;18.80;99.90;;;;;;5270888;28;20101;-70
2023/05/19 11:02:38;;;;;;;42.28;38.90;;;19.00;99.90;;;;;;5270486;28;20016;-66
2023/05/19 11:05:11;;;;;;;;;;;19.00;99.90;;;;;;5272218;28;20038;-66
2023/05/19 11:07:43;;;;;;;40.33;37.28;;;19.10;99.90;;;;;;5284381;28;19923;-69
2023/05/19 11:10:22;;;;;;;41.47;38.10;;;19.30;99.90;;;;;;5288816;28;20153;-70
2023/05/19 11:12:56;;;;;;;35.33;32.63;;;19.40;99.90;;;;;;5289116;28;20023;-71
2023/05/19 11:15:27;;;;;;;33.97;31.67;;;19.70;99.90;;;;;;5289066;28;20039;-70
2023/05/19 11:18:01;;;;;;;30.48;28.30;;;20.00;99.90;;;;;;5289102;28;20099;-70
2023/05/19 11:20:33;;;;;;;28.05;26.05;;;19.80;99.90;;;;;;5289119;28;20038;-69
2023/05/19 11:23:17;;;;;;;29.25;26.55;;;19.90;99.90;;;;;;5288980;28;20027;-70
2023/05/19 11:25:50;;;;;;;29.38;27.00;;;20.40;99.90;;;;;;5288731;28;20035;-71
2023/05/19 11:28:26;;;;;;;28.38;25.92;;;20.40;99.90;;;;;;5288952;28;20031;-71
2023/05/19 11:30:58;;;;;;;29.50;27.13;;;20.40;99.90;;;;;;5289101;28;20047;-71
2023/05/19 11:33:32;;;;;;;28.25;26.05;;;20.30;99.90;;;;;;5289178;28;20020;-69
2023/05/19 11:36:03;;;;;;;31.05;28.67;;;20.20;99.90;;;;;;5288883;28;20051;-71
2023/05/19 11:50:43;;;;;;;21.60;19.48;;;20.30;99.90;;;;;;5286194;27;20929;-69
2023/05/19 11:53:15;;;;;;;24.52;22.83;;;20.30;99.90;;;;;;5286216;28;20040;-70
2023/05/19 11:55:47;;;;;;;26.20;24.40;;;20.20;99.90;;;;;;5286162;28;20020;-70
2023/05/19 11:58:26;;;;;;;27.38;25.17;;;20.30;99.90;;;;;;5286082;28;20043;-70
2023/05/19 12:00:56;;;;;;;28.63;26.42;;;20.20;99.90;;;;;;5285925;28;20028;-71
2023/05/19 12:03:28;;;;;;;27.50;25.15;;;20.50;99.90;;;;;;5279421;28;20533;-71
2023/05/19 12:05:59;;;;;;;25.23;23.15;;;20.60;99.90;;;;;;5265012;28;20085;-71
2023/05/19 12:08:30;;;;;;;26.02;23.95;;;20.50;99.90;;;;;;5264824;28;20024;-71
2023/05/19 12:11:01;;;;;;;25.02;22.95;;;20.60;99.90;;;;;;5264801;28;20034;-71
2023/05/19 12:13:32;;;;;;;25.85;23.83;;;20.60;99.90;;;;;;5264824;28;20023;-69
2023/05/19 12:16:03;;;;;;;24.90;22.98;;;20.60;99.90;;;;;;5264779;28;20036;-71
2023/05/19 12:18:37;;;;;;;26.42;24.33;;;20.50;99.90;;;;;;5264575;28;20037;-73
2023/05/19 12:21:08;;;;;;;24.95;23.23;;;20.20;99.90;;;;;;5264510;28;20028;-70
2023/05/19 12:23:40;;;;;;;27.38;25.17;;;20.20;99.90;;;;;;5264620;28;20524;-70
2023/05/19 12:26:11;;;;;;;26.10;23.92;;;20.10;99.90;;;;;;5264424;28;20035;-70
2023/05/19 12:28:44;;;;;;;27.17;25.02;;;20.10;99.90;;;;;;5264504;28;20161;-70
2023/05/19 12:31:16;;;;;;;24.90;22.90;;;20.00;99.90;;;;;;5264258;28;20024;-70
2023/05/19 12:33:52;;;;;;;24.95;23.08;;;19.80;99.90;;;;;;5264396;28;20353;-70
2023/05/19 12:36:24;;;;;;;26.20;23.80;;;19.80;99.90;;;;;;5264366;28;20066;-70
2023/05/19 12:38:55;;;;;;;25.25;23.30;;;19.80;99.90;;;;;;5264183;28;20040;-70
2023/05/19 12:41:29;;;;;;;24.73;22.77;;;19.80;99.90;;;;;;5264089;28;20024;-71
2023/05/19 12:43:59;;;;;;;26.15;24.00;;;19.70;99.90;;;;;;5264151;28;20056;-69
2023/05/19 12:46:32;;;;;;;27.02;24.77;;;19.70;99.90;;;;;;5264077;28;20055;-70
2023/05/19 12:49:03;;;;;;;25.65;23.50;;;19.70;99.90;;;;;;5260005;28;20037;-70
2023/05/19 12:51:35;;;;;;;27.38;25.17;;;19.70;99.90;;;;;;5250111;28;20426;-70
2023/05/19 12:54:06;;;;;;;26.52;24.13;;;19.70;99.90;;;;;;5250230;28;20024;-70
2023/05/19 12:56:37;;;;;;;25.75;23.25;;;19.70;99.90;;;;;;5250268;28;20032;-70
2023/05/19 12:59:08;;;;;;;26.58;24.27;;;19.80;99.90;;;;;;5254839;28;20070;-67
2023/05/19 13:01:39;;;;;;;26.08;24.08;;;20.00;99.90;;;;;;5258179;28;20115;-67
2023/05/19 13:04:10;;;;;;;24.25;22.08;;;19.90;99.90;;;;;;5270919;28;20546;-69
2023/05/19 13:06:42;;;;;;;24.33;22.25;;;19.80;99.90;;;;;;5269993;28;20024;-70
2023/05/19 13:09:19;;;;;;;24.95;22.85;;;20.00;99.90;;;;;;5259887;28;20124;-67
2023/05/19 13:11:52;;;;;;;24.92;22.38;;;20.10;99.90;;;;;;5252466;28;20040;-69
2023/05/19 13:14:23;;;;;;;23.55;21.65;;;20.10;99.90;;;;;;5249692;28;20049;-68
2023/05/19 13:16:56;;;;;;;26.23;24.33;;;20.00;99.90;;;;;;5249611;28;20055;-68
2023/05/19 13:19:29;;;;;;;24.33;22.40;;;20.00;99.90;;;;;;5249454;28;20044;-68
2023/05/19 13:22:08;;;;;;;25.67;23.48;;;20.10;99.90;;;;;;5249589;28;20052;-69
2023/05/19 13:24:39;;;;;;;27.50;25.23;;;20.10;99.90;;;;;;5249503;28;20028;-69
2023/05/19 13:27:10;;;;;;;26.58;24.48;;;20.20;99.90;;;;;;5249487;28;20025;-68
2023/05/19 13:29:43;;;;;;;25.92;23.73;;;20.20;99.90;;;;;;5249245;28;20059;-67
2023/05/19 13:32:21;;;;;;;25.98;24.08;;;20.40;99.90;;;;;;5249318;28;20028;-68
2023/05/19 13:34:52;;;;;;;29.00;26.55;;;20.40;99.90;;;;;;5249269;28;20020;-68
2023/05/19 13:37:24;;;;;;;28.38;26.20;;;20.30;99.90;;;;;;5249106;28;20029;-67
2023/05/19 13:39:57;;;;;;;26.20;24.30;;;20.30;99.90;;;;;;5248976;28;20036;-68
2023/05/19 13:42:35;;;;;;;22.67;20.90;;;20.10;99.90;;;;;;5249108;28;20029;-68
2023/05/19 13:45:06;;;;;;;23.00;20.67;;;20.10;99.90;;;;;;5251238;28;20047;-70
2023/05/19 13:47:38;;;;;;;24.77;22.63;;;20.10;99.90;;;;;;5267684;28;20099;-70
2023/05/19 13:50:09;;;;;;;24.98;22.67;;;20.10;99.90;;;;;;5269607;28;20052;-70
2023/05/19 13:52:39;;;;;;;25.10;23.00;;;20.00;99.90;;;;;;5269807;28;20413;-69
2023/05/19 13:55:10;;;;;;;23.35;21.42;;;20.10;99.90;;;;;;5269790;28;20020;-68
2023/05/19 13:57:41;;;;;;;23.98;22.25;;;20.10;99.90;;;;;;5269571;28;20040;-69
2023/05/19 14:00:12;;;;;;;23.90;22.10;;;20.10;99.90;;;;;;5269444;28;20407;-68
2023/05/19 14:02:43;;;;;;;23.05;21.20;;;20.10;99.90;;;;;;5268816;28;20617;-68
2023/05/19 14:05:14;;;;;;;22.67;20.83;;;20.00;99.90;;;;;;5269602;28;20030;-70
2023/05/19 14:07:45;;;;;;;24.70;22.45;;;20.00;99.90;;;;;;5269558;28;20038;-70
2023/05/19 14:10:16;;;;;;;24.58;22.45;;;20.00;99.90;;;;;;5269433;28;20016;-70
2023/05/19 14:12:47;;;;;;;23.80;21.70;;;20.00;99.90;;;;;;5269289;28;20508;-70
2023/05/19 14:15:18;;;;;;;22.92;21.10;;;19.90;99.90;;;;;;5269481;28;20089;-70
2023/05/19 14:17:50;;;;;;;25.67;23.38;;;19.90;99.90;;;;;;5269184;28;20036;-70
2023/05/19 14:20:20;;;;;;;27.48;24.77;;;19.60;99.90;;;;;;5269034;28;20043;-70
2023/05/19 14:22:51;;;;;;;25.35;23.27;;;19.80;99.90;;;;;;5269178;28;20020;-70
2023/05/19 14:25:22;;;;;;;24.77;22.58;;;19.90;99.90;;;;;;5269225;28;20491;-70